createdAt,value
2023-05-05T00:01:03.223Z,99514.02
2023-05-05T00:03:31.237Z,99511.09
2023-05-05T00:05:59.198Z,99509.10
2023-05-05T00:08:28.560Z,99507.05
2023-05-05T00:10:57.704Z,99504.64
2023-05-05T00:13:25.985Z,99502.08
2023-05-05T00:15:54.161Z,99498.06
2023-05-05T00:18:22.163Z,99500.63
2023-05-05T00:20:50.219Z,99498.59
2023-05-05T00:23:19.537Z,99498.35
2023-05-05T00:25:47.809Z,99495.48
2023-05-05T00:28:15.882Z,99493.48
2023-05-05T00:30:44.115Z,99489.21
2023-05-05T00:33:12.434Z,99490.88
2023-05-05T00:35:40.579Z,99489.61
2023-05-05T00:38:08.630Z,99481.13
2023-05-05T00:40:38.174Z,99475.98
2023-05-05T00:43:07.762Z,99474.37
2023-05-05T00:45:37.466Z,99473.13
2023-05-05T00:48:06.717Z,99472.10
2023-05-05T00:50:35.231Z,99471.91
2023-05-05T00:53:06.134Z,99473.95
2023-05-05T00:55:35.323Z,99471.55
2023-05-05T00:58:04.498Z,99469.30
2023-05-05T01:00:32.926Z,99469.14
2023-05-05T01:03:01.589Z,99465.25
2023-05-05T01:05:42.167Z,99465.08
2023-05-05T01:08:27.176Z,99463.96
2023-05-05T01:11:02.209Z,99461.79
2023-05-05T01:13:48.375Z,99458.52
2023-05-05T01:16:29.046Z,99462.09
2023-05-05T01:19:27.926Z,99460.78
2023-05-05T01:22:02.015Z,99459.95
2023-05-05T01:24:45.084Z,99460.52
2023-05-05T01:27:59.853Z,99462.95
2023-05-05T01:30:33.537Z,99462.25
2023-05-05T01:33:06.593Z,99465.27
2023-05-05T01:35:45.882Z,99463.68
2023-05-05T01:38:25.584Z,99467.55
2023-05-05T01:41:05.306Z,99470.01
2023-05-05T01:43:35.873Z,99465.80
2023-05-05T01:46:06.444Z,99465.81
2023-05-05T01:48:35.163Z,99462.50
2023-05-05T01:51:03.948Z,99464.30
2023-05-05T01:53:33.381Z,99464.35
2023-05-05T01:56:02.845Z,99461.67
2023-05-05T01:58:32.957Z,99454.42
2023-05-05T02:01:01.971Z,99454.52
2023-05-05T02:03:32.234Z,99453.18
2023-05-05T02:06:01.323Z,99452.86
2023-05-05T02:08:31.641Z,99455.52
2023-05-05T02:11:00.916Z,99449.52
2023-05-05T02:13:32.630Z,99450.21
2023-05-05T02:16:03.104Z,99450.92
2023-05-05T02:18:35.884Z,99449.67
2023-05-05T02:21:04.172Z,99444.74
2023-05-05T02:23:32.178Z,99446.85
2023-05-05T02:26:05.804Z,99446.70
2023-05-05T02:28:37.775Z,99448.98
2023-05-05T02:31:08.663Z,99447.55
2023-05-05T02:33:38.723Z,99444.73
2023-05-05T02:36:14.501Z,99443.30
2023-05-05T02:38:58.220Z,99440.56
2023-05-05T02:41:28.556Z,99441.17
2023-05-05T02:43:59.680Z,99441.62
2023-05-05T02:46:28.873Z,99438.65
2023-05-05T02:48:56.932Z,99437.09
2023-05-05T02:51:24.942Z,99438.08
2023-05-05T02:53:53.369Z,99434.94
2023-05-05T02:56:41.354Z,99433.19
2023-05-05T02:59:27.867Z,99436.06
2023-05-05T03:02:10.117Z,99434.77
2023-05-05T03:04:42.441Z,99435.59
2023-05-05T03:07:21.086Z,99438.27
2023-05-05T03:10:03.261Z,99434.96
2023-05-05T03:12:54.153Z,99435.88
2023-05-05T03:15:41.493Z,99434.02
2023-05-05T03:18:12.162Z,99429.86
2023-05-05T03:20:42.828Z,99425.73
2023-05-05T03:23:13.436Z,99429.31
2023-05-05T03:25:43.737Z,99434.48
2023-05-05T03:28:14.269Z,99436.02
2023-05-05T03:30:42.877Z,99438.40
2023-05-05T03:33:11.912Z,99447.97
2023-05-05T03:35:40.879Z,99452.64
2023-05-05T03:38:10.154Z,99448.91
2023-05-05T03:40:44.350Z,99448.36
2023-05-05T03:43:14.834Z,99449.54
2023-05-05T03:45:43.042Z,99451.41
2023-05-05T03:48:11.859Z,99453.84
2023-05-05T03:50:40.678Z,99454.14
2023-05-05T03:53:09.022Z,99454.77
2023-05-05T03:55:37.346Z,99453.27
2023-05-05T03:58:05.331Z,99456.67
2023-05-05T04:00:33.442Z,99458.17
2023-05-05T04:03:01.983Z,99456.47
2023-05-05T04:05:30.618Z,99457.11
2023-05-05T04:07:58.820Z,99462.20
2023-05-05T04:10:27.244Z,99463.10
2023-05-05T04:12:55.775Z,99457.11
2023-05-05T04:15:23.815Z,99452.17
2023-05-05T04:17:52.333Z,99452.21
2023-05-05T04:20:20.539Z,99446.52
2023-05-05T04:22:49.375Z,99447.81
2023-05-05T04:25:19.516Z,99445.23
2023-05-05T04:27:48.090Z,99441.45
2023-05-05T04:30:16.774Z,99446.09
2023-05-05T04:32:44.930Z,99446.02
2023-05-05T04:35:13.136Z,99442.07
2023-05-05T04:37:41.454Z,99441.16
2023-05-05T04:40:10.057Z,99445.14
2023-05-05T04:42:38.458Z,99448.20
2023-05-05T04:45:08.564Z,99450.43
2023-05-05T04:47:40.559Z,99453.26
2023-05-05T04:50:09.697Z,99451.77
2023-05-05T04:52:37.939Z,99451.51
2023-05-05T04:55:06.626Z,99450.20
2023-05-05T04:57:34.632Z,99449.98
2023-05-05T05:00:04.941Z,99451.63
2023-05-05T05:02:33.797Z,99451.95
2023-05-05T05:05:01.907Z,99454.52
2023-05-05T05:07:29.925Z,99459.09
2023-05-05T05:09:58.043Z,99457.98
2023-05-05T05:12:26.018Z,99462.55
2023-05-05T05:14:53.929Z,99463.45
2023-05-05T05:17:22.764Z,99465.10
2023-05-05T05:19:50.859Z,99462.19
2023-05-05T05:22:18.799Z,99465.87
2023-05-05T05:24:46.906Z,99461.83
2023-05-05T05:27:15.118Z,99463.42
2023-05-05T05:29:44.547Z,99461.05
2023-05-05T05:32:12.581Z,99459.64
2023-05-05T05:34:40.705Z,99459.84
2023-05-05T05:37:09.301Z,99462.60
2023-05-05T05:39:38.089Z,99463.80
2023-05-05T05:42:06.565Z,99467.76
2023-05-05T05:44:34.879Z,99469.41
2023-05-05T05:47:03.409Z,99474.66
2023-05-05T05:49:32.116Z,99476.55
2023-05-05T05:52:00.204Z,99478.42
2023-05-05T05:54:28.553Z,99478.95
2023-05-05T05:56:56.801Z,99474.16
2023-05-05T05:59:24.785Z,99473.39
2023-05-05T06:01:53.082Z,99476.48
2023-05-05T06:04:21.541Z,99475.33
2023-05-05T06:06:50.086Z,99476.11
2023-05-05T06:09:18.181Z,99478.41
2023-05-05T06:11:46.472Z,99480.27
2023-05-05T06:14:14.820Z,99477.81
2023-05-05T06:16:44.255Z,99477.46
2023-05-05T06:19:17.101Z,99476.30
2023-05-05T06:21:45.391Z,99474.73
2023-05-05T06:24:13.403Z,99471.70
2023-05-05T06:26:41.934Z,99472.55
2023-05-05T06:29:11.816Z,99472.79
2023-05-05T06:31:40.483Z,99475.52
2023-05-05T06:34:08.492Z,99478.98
2023-05-05T06:36:36.487Z,99480.30
2023-05-05T06:39:04.440Z,99480.35
2023-05-05T06:41:32.463Z,99477.96
2023-05-05T06:44:00.449Z,99477.46
2023-05-05T06:46:29.196Z,99469.94
2023-05-05T06:48:57.156Z,99469.08
2023-05-05T06:51:25.131Z,99472.45
2023-05-05T06:53:53.111Z,99475.14
2023-05-05T06:56:21.000Z,99472.95
2023-05-05T06:58:48.891Z,99473.02
2023-05-05T07:01:17.242Z,99475.61
2023-05-05T07:03:45.324Z,99473.75
2023-05-05T07:06:13.780Z,99471.48
2023-05-05T07:08:41.685Z,99473.95
2023-05-05T07:11:09.653Z,99470.36
2023-05-05T07:13:37.549Z,99465.47
2023-05-05T07:16:06.036Z,99462.16
2023-05-05T07:18:34.033Z,99464.89
2023-05-05T07:21:01.974Z,99465.53
2023-05-05T07:23:29.902Z,99465.67
2023-05-05T07:25:58.013Z,99466.14
2023-05-05T07:28:26.539Z,99468.50
2023-05-05T07:30:54.782Z,99469.21
2023-05-05T07:33:22.685Z,99469.46
2023-05-05T07:35:50.750Z,99470.16
2023-05-05T07:38:18.773Z,99468.80
2023-05-05T07:40:46.864Z,99466.13
2023-05-05T07:43:14.859Z,99466.14
2023-05-05T07:45:42.917Z,99463.48
2023-05-05T07:48:10.967Z,99460.85
2023-05-05T07:50:38.909Z,99464.64
2023-05-05T07:53:14.466Z,99463.30
2023-05-05T07:55:42.996Z,99464.60
2023-05-05T07:58:11.308Z,99465.42
2023-05-05T08:00:39.747Z,99468.30
2023-05-05T08:03:11.322Z,99470.38
2023-05-05T08:05:40.755Z,99475.09
2023-05-05T08:08:08.878Z,99475.56
2023-05-05T08:10:36.859Z,99471.41
2023-05-05T08:13:04.862Z,99470.98
2023-05-05T08:15:33.135Z,99470.30
2023-05-05T08:18:01.165Z,99471.29
2023-05-05T08:20:29.497Z,99468.90
2023-05-05T08:22:57.461Z,99469.93
2023-05-05T08:25:27.081Z,99467.61
2023-05-05T08:27:55.170Z,99467.48
2023-05-05T08:30:23.172Z,99468.18
2023-05-05T08:32:51.458Z,99464.55
2023-05-05T08:35:19.509Z,99463.23
2023-05-05T08:37:47.514Z,99463.36
2023-05-05T08:40:15.789Z,99462.52
2023-05-05T08:42:45.949Z,99463.67
2023-05-05T08:45:13.972Z,99465.57
2023-05-05T08:47:43.514Z,99464.85
2023-05-05T08:50:12.207Z,99466.40
2023-05-05T08:52:44.391Z,99463.20
2023-05-05T08:55:19.494Z,99460.61
2023-05-05T08:57:52.637Z,99457.58
2023-05-05T09:00:21.245Z,99456.58
2023-05-05T09:02:49.835Z,99457.11
2023-05-05T09:05:18.076Z,99456.10
2023-05-05T09:07:47.368Z,99458.46
2023-05-05T09:10:15.713Z,99461.14
2023-05-05T09:12:43.859Z,99460.45
2023-05-05T09:15:14.060Z,99458.28
2023-05-05T09:17:42.412Z,99457.15
2023-05-05T09:20:12.648Z,99454.09
2023-05-05T09:22:42.980Z,99457.96
2023-05-05T09:25:12.880Z,99456.83
2023-05-05T09:27:46.199Z,99452.84
2023-05-05T09:30:23.714Z,99448.45
2023-05-05T09:32:55.571Z,99447.12
2023-05-05T09:35:23.980Z,99447.23
2023-05-05T09:37:52.029Z,99448.58
2023-05-05T09:40:21.033Z,99450.15
2023-05-05T09:42:49.042Z,99447.06
2023-05-05T09:45:20.110Z,99449.63
2023-05-05T09:47:49.258Z,99445.61
2023-05-05T09:50:20.571Z,99446.31
2023-05-05T09:53:14.975Z,99448.52
2023-05-05T09:55:53.100Z,99449.61
2023-05-05T09:58:26.008Z,99447.63
2023-05-05T10:00:55.720Z,99448.27
2023-05-05T10:03:24.476Z,99449.46
2023-05-05T10:05:54.510Z,99452.23
2023-05-05T10:08:33.611Z,99452.23
2023-05-05T10:11:06.496Z,99454.84
2023-05-05T10:13:42.081Z,99451.56
2023-05-05T10:16:12.602Z,99447.66
2023-05-05T10:18:46.469Z,99444.63
2023-05-05T10:21:19.972Z,99442.34
2023-05-05T10:24:15.875Z,99447.77
2023-05-05T10:26:46.044Z,99447.24
2023-05-05T10:29:21.592Z,99447.86
2023-05-05T10:32:21.397Z,99445.27
2023-05-05T10:35:00.144Z,99448.02
2023-05-05T10:37:29.436Z,99445.98
2023-05-05T10:39:58.710Z,99440.71
2023-05-05T10:42:27.878Z,99445.81
2023-05-05T10:44:56.070Z,99444.48
2023-05-05T10:47:25.076Z,99443.02
2023-05-05T10:50:14.793Z,99436.84
2023-05-05T10:53:20.542Z,99432.88
2023-05-05T10:55:54.231Z,99430.48
2023-05-05T10:58:51.256Z,99427.42
2023-05-05T11:01:34.130Z,99422.80
2023-05-05T11:04:18.547Z,99420.52
2023-05-05T11:07:11.044Z,99417.00
2023-05-05T11:10:01.793Z,99411.39
2023-05-05T11:12:31.605Z,99412.59
2023-05-05T11:15:24.371Z,99408.69
2023-05-05T11:17:54.038Z,99407.61
2023-05-05T11:20:40.557Z,99401.34
2023-05-05T11:23:08.535Z,99398.86
2023-05-05T11:25:36.952Z,99400.64
2023-05-05T11:28:09.226Z,99402.80
2023-05-05T11:30:56.421Z,99397.55
2023-05-05T11:33:31.217Z,99398.83
2023-05-05T11:35:59.211Z,99397.22
2023-05-05T11:38:38.972Z,99387.36
2023-05-05T11:41:23.472Z,99384.02
2023-05-05T11:44:08.683Z,99384.97
2023-05-05T11:46:37.047Z,99385.41
2023-05-05T11:49:05.018Z,99390.73
2023-05-05T11:51:34.084Z,99387.48
2023-05-05T11:54:02.108Z,99382.90
2023-05-05T11:56:30.097Z,99379.23
2023-05-05T11:59:09.852Z,99375.88
2023-05-05T12:01:41.785Z,99379.40
2023-05-05T12:04:14.547Z,99379.70
2023-05-05T12:06:43.453Z,99374.56
2023-05-05T12:09:18.833Z,99375.77
2023-05-05T12:11:58.141Z,99373.48
2023-05-05T12:14:26.195Z,99373.08
2023-05-05T12:16:55.777Z,99370.75
2023-05-05T12:19:24.617Z,99368.48
2023-05-05T12:21:54.317Z,99368.08
2023-05-05T12:24:23.022Z,99366.64
2023-05-05T12:26:51.740Z,99362.48
2023-05-05T12:29:29.110Z,99360.48
2023-05-05T12:31:58.128Z,99358.56
2023-05-05T12:34:26.469Z,99358.08
2023-05-05T12:36:54.562Z,99360.20
2023-05-05T12:39:22.595Z,99358.39
2023-05-05T12:41:50.714Z,99357.77
2023-05-05T12:44:18.657Z,99353.25
2023-05-05T12:46:48.259Z,99350.44
2023-05-05T12:49:16.948Z,99354.73
2023-05-05T12:51:56.495Z,99353.09
2023-05-05T12:54:25.179Z,99350.30
2023-05-05T12:56:53.126Z,99346.77
2023-05-05T12:59:21.108Z,99345.05
2023-05-05T13:01:51.033Z,99339.65
2023-05-05T13:04:21.033Z,99338.98
2023-05-05T13:06:54.048Z,99337.92
2023-05-05T13:09:26.991Z,99341.60
2023-05-05T13:11:54.998Z,99339.09
2023-05-05T13:14:23.569Z,99336.06
2023-05-05T13:16:51.510Z,99334.67
2023-05-05T13:19:19.478Z,99333.56
2023-05-05T13:21:47.506Z,99330.98
2023-05-05T13:26:47.040Z,99322.61
2023-05-05T13:29:16.528Z,99316.45
2023-05-05T13:31:45.461Z,99312.63
2023-05-05T13:34:13.664Z,99307.16
2023-05-05T13:36:41.769Z,99309.58
2023-05-05T13:39:09.912Z,99304.09
2023-05-05T13:41:38.041Z,99301.41
2023-05-05T13:44:06.020Z,99298.64
2023-05-05T13:46:33.998Z,99293.15
2023-05-05T13:49:02.177Z,99287.57
2023-05-05T13:51:30.204Z,99288.73
2023-05-05T13:53:58.182Z,99285.61
2023-05-05T13:56:27.850Z,99286.02
2023-05-05T13:58:56.064Z,99284.32
2023-05-05T14:01:24.221Z,99280.21
2023-05-05T14:03:52.361Z,99279.55
2023-05-05T14:06:20.708Z,99276.79
2023-05-05T14:08:48.650Z,99280.42
2023-05-05T14:11:18.195Z,99278.13
2023-05-05T14:13:46.736Z,99277.74
2023-05-05T14:16:14.778Z,99273.98
2023-05-05T14:18:42.931Z,99269.02
2023-05-05T14:21:11.294Z,99269.35
2023-05-05T14:23:39.238Z,99267.62
2023-05-05T14:26:09.044Z,99268.61
2023-05-05T14:28:37.286Z,99266.87
2023-05-05T14:31:05.404Z,99268.27
2023-05-05T14:33:33.342Z,99271.13
2023-05-05T14:36:01.398Z,99269.89
2023-05-05T14:38:29.387Z,99265.66
2023-05-05T14:40:57.320Z,99260.52
2023-05-05T14:43:25.743Z,99257.23
2023-05-05T14:45:53.835Z,99254.20
2023-05-05T14:48:22.331Z,99253.89
2023-05-05T14:50:50.497Z,99252.98
2023-05-05T14:53:19.395Z,99251.60
2023-05-05T14:55:47.460Z,99249.39
2023-05-05T14:58:15.781Z,99252.39
2023-05-05T15:00:43.817Z,99255.40
2023-05-05T15:03:11.814Z,99250.61
2023-05-05T15:05:39.834Z,99248.33
2023-05-05T15:08:07.935Z,99248.75
2023-05-05T15:10:35.950Z,99246.23
2023-05-05T15:13:03.956Z,99247.08
2023-05-05T15:15:32.017Z,99247.72
2023-05-05T15:17:59.984Z,99246.02
2023-05-05T15:20:28.195Z,99247.63
2023-05-05T15:22:56.379Z,99247.64
2023-05-05T15:25:24.456Z,99250.44
2023-05-05T15:27:52.522Z,99253.33
2023-05-05T15:30:20.650Z,99247.83
2023-05-05T15:32:48.570Z,99250.00
2023-05-05T15:35:16.738Z,99244.17
2023-05-05T15:37:44.721Z,99243.17
2023-05-05T15:40:12.923Z,99247.21
2023-05-05T15:42:41.019Z,99239.88
2023-05-05T15:45:12.406Z,99238.48
2023-05-05T15:47:40.845Z,99243.46
2023-05-05T15:50:09.311Z,99246.19
2023-05-05T15:52:37.338Z,99240.96
2023-05-05T15:55:06.791Z,99236.86
2023-05-05T15:57:35.339Z,99231.23
2023-05-05T16:00:03.577Z,99229.08
2023-05-05T16:02:35.822Z,99224.47
2023-05-05T16:05:04.638Z,99227.92
2023-05-05T16:07:32.669Z,99224.64
2023-05-05T16:10:00.609Z,99227.15
2023-05-05T16:12:28.624Z,99226.11
2023-05-05T16:14:56.757Z,99225.84
2023-05-05T16:17:24.794Z,99224.31
2023-05-05T16:19:52.751Z,99225.02
2023-05-05T16:22:21.115Z,99222.80
2023-05-05T16:24:49.036Z,99223.84
2023-05-05T16:27:17.008Z,99223.83
2023-05-05T16:29:44.929Z,99224.75
2023-05-05T16:32:12.950Z,99224.02
2023-05-05T16:34:40.960Z,99221.28
2023-05-05T16:37:08.846Z,99221.81
2023-05-05T16:39:40.333Z,99218.90
2023-05-05T16:42:08.450Z,99220.89
2023-05-05T16:44:36.437Z,99220.08
2023-05-05T16:47:04.450Z,99215.66
2023-05-05T16:49:32.445Z,99213.80
2023-05-05T16:52:00.656Z,99214.70
2023-05-05T16:54:28.569Z,99217.80
2023-05-05T16:56:56.643Z,99215.80
2023-05-05T16:59:24.694Z,99215.23
2023-05-05T17:01:52.696Z,99212.76
2023-05-05T17:04:20.696Z,99211.10
2023-05-05T17:06:48.690Z,99214.70
2023-05-05T17:09:16.708Z,99217.38
2023-05-05T17:11:44.606Z,99221.02
2023-05-05T17:14:12.481Z,99220.15
2023-05-05T17:16:40.699Z,99225.37
2023-05-05T17:19:08.669Z,99223.56
2023-05-05T17:21:36.566Z,99221.77
2023-05-05T17:24:04.881Z,99227.42
2023-05-05T17:26:32.958Z,99221.90
2023-05-05T17:29:00.888Z,99223.28
2023-05-05T17:31:28.842Z,99223.27
2023-05-05T17:33:56.958Z,99227.41
2023-05-05T17:36:24.947Z,99232.92
2023-05-05T17:38:52.973Z,99238.52
2023-05-05T17:41:21.954Z,99236.98
2023-05-05T17:43:49.927Z,99239.22
2023-05-05T17:46:18.074Z,99233.52
2023-05-05T17:48:46.254Z,99233.27
2023-05-05T17:51:14.274Z,99234.15
2023-05-05T17:53:42.228Z,99234.92
2023-05-05T17:56:10.221Z,99233.70
2023-05-05T17:58:38.563Z,99232.23
2023-05-05T18:01:06.756Z,99228.36
2023-05-05T18:03:34.837Z,99235.15
2023-05-05T18:06:02.853Z,99235.99
2023-05-05T18:08:30.897Z,99236.73
2023-05-05T18:10:58.806Z,99240.95
2023-05-05T18:13:26.870Z,99239.23
2023-05-05T18:15:54.912Z,99237.09
2023-05-05T18:18:23.364Z,99239.53
2023-05-05T18:20:51.579Z,99240.51
2023-05-05T18:23:19.640Z,99237.88
2023-05-05T18:25:47.520Z,99237.98
2023-05-05T18:28:15.464Z,99241.57
2023-05-05T18:30:43.409Z,99245.00
2023-05-05T18:33:11.279Z,99244.30
2023-05-05T18:35:39.245Z,99247.08
2023-05-05T18:38:07.247Z,99251.05
2023-05-05T18:40:35.310Z,99250.91
2023-05-05T18:43:03.279Z,99253.67
2023-05-05T18:45:31.369Z,99255.80
2023-05-05T18:47:59.833Z,99254.95
2023-05-05T18:50:28.267Z,99257.48
2023-05-05T18:52:56.375Z,99253.10
2023-05-05T18:55:24.329Z,99253.93
2023-05-05T18:57:53.118Z,99257.23
2023-05-05T19:00:21.217Z,99258.04
2023-05-05T19:02:49.563Z,99255.28
2023-05-05T19:05:18.329Z,99255.37
2023-05-05T19:07:46.353Z,99256.33
2023-05-05T19:10:14.298Z,99256.48
2023-05-05T19:12:42.325Z,99253.05
2023-05-05T19:15:11.670Z,99256.64
2023-05-05T19:17:39.902Z,99257.07
2023-05-05T19:20:08.852Z,99262.39
2023-05-05T19:22:37.132Z,99260.75
2023-05-05T19:25:05.635Z,99255.48
2023-05-05T19:27:34.175Z,99254.09
2023-05-05T19:30:02.139Z,99253.10
2023-05-05T19:32:30.138Z,99252.80
2023-05-05T19:34:58.203Z,99255.77
2023-05-05T19:37:26.518Z,99254.16
2023-05-05T19:39:54.576Z,99257.27
2023-05-05T19:42:22.519Z,99253.77
2023-05-05T19:44:50.481Z,99251.88
2023-05-05T19:47:18.602Z,99260.42
2023-05-05T19:49:46.587Z,99266.00
2023-05-05T19:52:14.540Z,99267.55
2023-05-05T19:54:43.572Z,99267.67
2023-05-05T19:57:11.553Z,99262.88
2023-05-05T19:59:39.800Z,99264.74
2023-05-05T20:02:10.212Z,99262.20
2023-05-05T20:04:38.329Z,99265.08
2023-05-05T20:07:06.302Z,99270.36
2023-05-05T20:09:34.307Z,99267.59
2023-05-05T20:12:02.469Z,99263.11
2023-05-05T20:14:30.469Z,99260.58
2023-05-05T20:16:58.501Z,99257.75
2023-05-05T20:19:26.546Z,99255.60
2023-05-05T20:21:54.610Z,99257.52
2023-05-05T20:24:22.852Z,99256.73
2023-05-05T20:26:50.829Z,99256.00
2023-05-05T20:29:20.388Z,99254.68
2023-05-05T20:31:48.768Z,99253.56
2023-05-05T20:34:16.835Z,99254.92
2023-05-05T20:36:44.801Z,99251.59
2023-05-05T20:39:16.304Z,99251.04
2023-05-05T20:41:46.273Z,99252.13
2023-05-05T20:44:14.201Z,99252.19
2023-05-05T20:46:42.144Z,99249.70
2023-05-05T20:49:10.026Z,99248.08
2023-05-05T20:51:38.063Z,99246.88
2023-05-05T20:54:06.087Z,99245.34
2023-05-05T20:56:34.006Z,99243.86
2023-05-05T20:59:01.998Z,99244.88
2023-05-05T21:01:30.097Z,99241.50
2023-05-05T21:04:00.522Z,99236.74
2023-05-05T21:06:28.515Z,99234.00
2023-05-05T21:08:56.693Z,99237.52
2023-05-05T21:11:24.613Z,99236.86
2023-05-05T21:13:52.573Z,99233.48
2023-05-05T21:16:21.090Z,99235.92
2023-05-05T21:18:49.173Z,99237.19
2023-05-05T21:21:17.235Z,99235.86
2023-05-05T21:23:47.946Z,99234.98
2023-05-05T21:26:16.104Z,99237.89
2023-05-05T21:28:44.026Z,99234.88
2023-05-05T21:31:21.631Z,99236.12
2023-05-05T21:33:50.302Z,99237.91
2023-05-05T21:36:19.331Z,99234.89
2023-05-05T21:38:47.333Z,99235.52
2023-05-05T21:41:15.318Z,99234.80
2023-05-05T21:43:43.226Z,99240.08
2023-05-05T21:46:11.262Z,99240.53
2023-05-05T21:48:40.079Z,99233.17
2023-05-05T21:51:08.129Z,99230.66
2023-05-05T21:53:37.757Z,99228.05
2023-05-05T21:56:08.413Z,99230.35
2023-05-05T21:58:36.473Z,99231.61
2023-05-05T22:01:04.598Z,99226.64
2023-05-05T22:03:34.386Z,99225.20
2023-05-05T22:06:02.945Z,99224.70
2023-05-05T22:08:30.865Z,99224.04
2023-05-05T22:10:58.775Z,99212.55
2023-05-05T22:13:26.696Z,99210.43
2023-05-05T22:15:54.710Z,99208.63
2023-05-05T22:18:22.648Z,99208.66
2023-05-05T22:20:51.437Z,99209.56
2023-05-05T22:23:19.435Z,99212.02
2023-05-05T22:25:47.715Z,99215.59
2023-05-05T22:28:15.583Z,99214.02
2023-05-05T22:30:43.752Z,99208.55
2023-05-05T22:33:11.777Z,99214.98
2023-05-05T22:35:39.772Z,99212.86
2023-05-05T22:38:07.875Z,99208.95
2023-05-05T22:40:35.984Z,99204.52
2023-05-05T22:43:03.975Z,99204.90
2023-05-05T22:45:31.996Z,99201.83
2023-05-05T22:48:00.172Z,99200.86
2023-05-05T22:50:28.381Z,99198.67
2023-05-05T22:52:56.654Z,99199.19
2023-05-05T22:55:24.926Z,99196.45
2023-05-05T22:57:52.921Z,99191.61
2023-05-05T23:00:20.845Z,99188.33
2023-05-05T23:02:48.916Z,99186.91
2023-05-05T23:05:17.000Z,99182.52
2023-05-05T23:07:45.085Z,99185.90
2023-05-05T23:10:13.046Z,99186.16
2023-05-05T23:12:41.034Z,99182.27
2023-05-05T23:15:10.132Z,99180.15
2023-05-05T23:17:38.298Z,99178.98
2023-05-05T23:20:09.506Z,99174.02
2023-05-05T23:22:37.847Z,99172.72
2023-05-05T23:25:06.178Z,99172.04
2023-05-05T23:27:34.094Z,99168.09
2023-05-05T23:30:02.006Z,99166.88
2023-05-05T23:32:29.985Z,99164.33
2023-05-05T23:34:57.898Z,99161.06
2023-05-05T23:37:25.785Z,99160.41
2023-05-05T23:39:53.703Z,99158.77
2023-05-05T23:42:21.655Z,99152.42
2023-05-05T23:44:49.581Z,99145.54
2023-05-05T23:47:17.487Z,99136.93
2023-05-05T23:49:45.516Z,99128.55
2023-05-05T23:52:13.436Z,99127.42
2023-05-05T23:54:41.897Z,99126.73
2023-05-05T23:57:09.917Z,99126.01
2023-05-05T23:59:39.163Z,99121.25
